Time;durP1;ratioP1;P1;durP2;ratioP2;P2;SDS_P1;SDS_P2;PMS_P1;PMS_P2;Temp;Humidity;BMP_temperature;BMP_pressure;BME280_temperature;BME280_humidity;BME280_pressure;Samples;Min_cycle;Max_cycle;Signal;HPM_P1;HPM_P2
2023/09/06 00:01:21;;;;;;;8.50;5.43;;;15.50;99.90;;;;;;2586241;54;21009;31
2023/09/06 00:03:55;;;;;;;9.25;5.45;;;15.50;99.90;;;;;;2586055;54;20034;31
2023/09/06 00:06:31;;;;;;;8.53;5.67;;;15.40;99.90;;;;;;2586021;54;20994;31
2023/09/06 00:09:03;;;;;;;7.75;4.95;;;15.40;99.90;;;;;;2586154;54;20026;31
2023/09/06 00:11:39;;;;;;;7.15;4.85;;;15.30;99.90;;;;;;2585857;54;20875;31
2023/09/06 00:14:15;;;;;;;6.88;4.63;;;15.30;99.90;;;;;;2604511;46;20906;31
2023/09/06 00:16:50;;;;;;;7.10;4.40;;;15.20;99.90;;;;;;2604381;46;20104;31
2023/09/06 00:19:23;;;;;;;7.63;5.17;;;15.20;99.90;;;;;;2585845;54;20109;31
2023/09/06 00:21:58;;;;;;;12.10;5.38;;;15.10;99.90;;;;;;2585645;54;20053;31
2023/09/06 00:24:32;;;;;;;7.80;5.10;;;15.10;99.90;;;;;;2586456;54;20069;31
2023/09/06 00:27:07;;;;;;;9.52;4.97;;;15.10;99.90;;;;;;2585607;54;20030;31
2023/09/06 00:29:39;;;;;;;9.83;5.50;;;15.10;99.90;;;;;;2586175;54;20770;31
2023/09/06 00:32:10;;;;;;;11.00;4.80;;;15.00;99.90;;;;;;2586162;54;20039;31
2023/09/06 00:34:44;;;;;;;6.68;4.70;;;15.00;99.90;;;;;;2586150;54;20033;31
2023/09/06 00:37:16;;;;;;;7.65;5.05;;;15.00;99.90;;;;;;2585790;54;19944;31
2023/09/06 00:39:51;;;;;;;6.10;3.75;;;15.00;99.90;;;;;;2604294;46;20031;31
2023/09/06 00:42:30;;;;;;;8.25;4.53;;;14.90;99.90;;;;;;2604606;46;20077;31
2023/09/06 00:45:02;;;;;;;7.07;4.40;;;14.90;99.90;;;;;;2604697;46;20031;31
2023/09/06 00:47:37;;;;;;;6.65;4.40;;;14.90;99.90;;;;;;2604222;46;20110;31
2023/09/06 00:50:10;;;;;;;8.35;5.10;;;14.90;99.90;;;;;;2585857;54;20088;31
2023/09/06 00:52:45;;;;;;;7.85;4.43;;;14.90;99.90;;;;;;2585891;54;20030;31
2023/09/06 00:55:17;;;;;;;7.33;5.03;;;14.80;99.90;;;;;;2586162;54;20742;31
2023/09/06 00:57:55;;;;;;;8.70;4.97;;;14.80;99.90;;;;;;2604243;46;20026;31
2023/09/06 01:00:30;;;;;;;7.47;4.70;;;14.80;99.90;;;;;;2604174;46;21132;31
2023/09/06 01:03:04;;;;;;;10.43;4.63;;;14.80;99.90;;;;;;2585926;54;20022;31
2023/09/06 01:05:40;;;;;;;7.10;4.85;;;14.80;99.90;;;;;;2585937;54;20069;31
2023/09/06 01:08:18;;;;;;;8.10;5.20;;;14.70;99.90;;;;;;2604802;46;20027;31
2023/09/06 01:10:51;;;;;;;8.93;5.05;;;14.70;99.90;;;;;;2585747;54;20045;31
2023/09/06 01:13:26;;;;;;;8.10;5.20;;;14.70;99.90;;;;;;2585889;54;20154;31
2023/09/06 01:15:59;;;;;;;9.80;5.95;;;14.60;99.90;;;;;;2585983;54;20111;31
2023/09/06 01:18:32;;;;;;;7.35;5.32;;;14.60;99.90;;;;;;2585971;54;20150;31
2023/09/06 01:21:07;;;;;;;8.32;4.45;;;14.60;99.90;;;;;;2604031;46;20030;31
2023/09/06 01:23:44;;;;;;;11.68;5.38;;;14.60;99.90;;;;;;2604274;46;20801;31
2023/09/06 01:26:15;;;;;;;8.55;5.25;;;14.60;99.90;;;;;;2683418;39;20386;31
2023/09/06 01:28:49;;;;;;;7.50;5.47;;;14.60;99.90;;;;;;2604290;46;20771;31
2023/09/06 01:31:22;;;;;;;9.15;4.45;;;14.50;99.90;;;;;;2585533;54;21012;31
2023/09/06 01:33:55;;;;;;;6.93;4.75;;;14.50;99.90;;;;;;2585872;54;20703;31
2023/09/06 01:36:27;;;;;;;8.75;4.40;;;14.50;99.90;;;;;;2586130;54;20056;31
2023/09/06 01:39:04;;;;;;;8.10;5.13;;;14.50;99.90;;;;;;2585652;54;20970;31
2023/09/06 01:41:39;;;;;;;7.30;4.80;;;14.50;99.90;;;;;;2603956;46;20034;31
2023/09/06 01:44:11;;;;;;;10.23;6.10;;;14.50;99.90;;;;;;2585813;54;21123;31
2023/09/06 01:46:45;;;;;;;9.00;6.05;;;14.40;99.90;;;;;;2585513;54;20809;31
2023/09/06 01:49:20;;;;;;;8.85;5.80;;;14.40;99.90;;;;;;2585664;54;20026;31
2023/09/06 01:51:53;;;;;;;7.32;4.40;;;14.40;99.90;;;;;;2585731;54;20060;31
2023/09/06 01:54:29;;;;;;;9.33;5.27;;;14.40;99.90;;;;;;2585512;54;20754;31
2023/09/06 01:57:01;;;;;;;9.18;5.63;;;14.30;99.90;;;;;;2585925;54;20046;31
2023/09/06 01:59:33;;;;;;;6.70;4.70;;;14.30;99.90;;;;;;2585638;54;20984;31
2023/09/06 02:02:06;;;;;;;10.48;5.43;;;14.30;99.90;;;;;;2585680;54;20939;31
2023/09/06 02:04:38;;;;;;;9.25;5.97;;;14.20;99.90;;;;;;2585811;54;20745;31
2023/09/06 02:07:11;;;;;;;11.90;6.60;;;14.20;99.90;;;;;;2604019;47;20901;31
2023/09/06 02:09:45;;;;;;;9.40;5.95;;;14.20;99.90;;;;;;2585718;54;20158;31
2023/09/06 02:12:21;;;;;;;9.20;5.35;;;14.20;99.90;;;;;;2604191;47;20022;31
2023/09/06 02:14:56;;;;;;;13.75;5.50;;;14.20;99.90;;;;;;2585765;54;20931;31
2023/09/06 02:17:31;;;;;;;10.65;5.88;;;14.10;99.90;;;;;;2585723;54;20038;31
2023/09/06 02:20:12;;;;;;;8.45;5.60;;;14.10;99.90;;;;;;2585358;54;20495;31
2023/09/06 02:22:51;;;;;;;10.60;6.53;;;14.10;99.90;;;;;;2603990;47;20029;31
2023/09/06 02:25:31;;;;;;;8.93;6.13;;;14.00;99.90;;;;;;2585572;54;20987;31
2023/09/06 02:28:05;;;;;;;8.75;4.95;;;14.00;99.90;;;;;;2585728;54;20031;31
2023/09/06 02:30:39;;;;;;;10.60;6.50;;;13.90;99.90;;;;;;2603645;47;20777;31
2023/09/06 02:33:13;;;;;;;12.43;6.10;;;13.90;99.90;;;;;;2585675;54;20505;31
2023/09/06 02:35:49;;;;;;;10.50;5.83;;;13.90;99.90;;;;;;2604326;47;20768;31
2023/09/06 02:38:24;;;;;;;7.67;5.10;;;13.90;99.90;;;;;;2585737;54;20481;31
2023/09/06 02:41:00;;;;;;;11.13;6.43;;;13.80;99.90;;;;;;2585516;54;20302;31
2023/09/06 02:43:33;;;;;;;8.90;6.07;;;13.90;99.90;;;;;;2585291;54;20073;31
2023/09/06 02:46:05;;;;;;;9.85;5.20;;;13.80;99.90;;;;;;2586523;54;20963;31
2023/09/06 02:48:38;;;;;;;7.65;5.15;;;13.80;99.90;;;;;;2586439;54;20030;31
2023/09/06 02:51:10;;;;;;;13.52;5.85;;;13.80;99.90;;;;;;2586370;54;20568;31
2023/09/06 02:53:45;;;;;;;9.33;6.00;;;13.80;99.90;;;;;;2585978;54;20490;31
2023/09/06 02:56:22;;;;;;;8.93;5.17;;;13.80;99.90;;;;;;2586216;54;21117;31
2023/09/06 02:58:59;;;;;;;9.68;5.78;;;13.70;99.90;;;;;;2586433;54;20902;31
2023/09/06 03:01:32;;;;;;;8.48;5.63;;;13.70;99.90;;;;;;2604697;46;20568;31
2023/09/06 03:04:06;;;;;;;13.10;6.70;;;13.70;99.90;;;;;;2604826;46;20030;31
2023/09/06 03:06:39;;;;;;;10.00;5.75;;;13.60;99.90;;;;;;2586379;54;20065;31
2023/09/06 03:09:14;;;;;;;9.57;6.57;;;13.60;99.90;;;;;;2586569;54;20860;31
2023/09/06 03:11:50;;;;;;;9.95;6.20;;;13.60;99.90;;;;;;2586453;54;20869;31
2023/09/06 03:14:30;;;;;;;9.48;6.07;;;13.50;99.90;;;;;;2586473;54;20866;31
2023/09/06 03:17:08;;;;;;;9.20;5.70;;;13.50;99.90;;;;;;2604553;46;20085;31
2023/09/06 03:19:41;;;;;;;8.52;5.68;;;13.50;99.90;;;;;;2586532;54;20923;31
2023/09/06 03:22:15;;;;;;;9.75;6.10;;;13.50;99.90;;;;;;2586483;54;20027;31
2023/09/06 03:24:48;;;;;;;8.73;5.90;;;13.50;99.90;;;;;;2586348;54;20737;31
2023/09/06 03:27:22;;;;;;;9.23;6.40;;;13.50;99.90;;;;;;2604752;46;20977;31
2023/09/06 03:29:54;;;;;;;11.00;6.30;;;13.40;99.90;;;;;;2586532;54;21018;31
2023/09/06 03:32:29;;;;;;;7.35;5.28;;;13.40;99.90;;;;;;2604666;46;20044;31
2023/09/06 03:35:04;;;;;;;8.80;6.30;;;13.40;99.90;;;;;;2604453;46;20027;31
2023/09/06 03:37:41;;;;;;;9.20;6.27;;;13.40;99.90;;;;;;2604655;46;20662;31
2023/09/06 03:40:34;;;;;;;9.45;6.45;;;13.30;99.90;;;;;;2586341;54;20026;31
2023/09/06 03:43:14;;;;;;;10.10;6.70;;;13.30;99.90;;;;;;2683923;39;20507;31
2023/09/06 03:45:50;;;;;;;8.40;6.00;;;13.30;99.90;;;;;;2604809;46;20975;31
2023/09/06 03:48:27;;;;;;;10.07;6.93;;;13.20;99.90;;;;;;2586012;54;20139;31
2023/09/06 03:51:01;;;;;;;11.43;6.17;;;13.30;99.90;;;;;;2586286;54;20958;31
2023/09/06 03:53:37;;;;;;;9.70;6.13;;;13.20;99.90;;;;;;2604716;46;20788;31
2023/09/06 03:56:12;;;;;;;12.10;7.20;;;13.20;99.90;;;;;;2604155;46;20029;31
2023/09/06 03:58:53;;;;;;;9.37;5.97;;;13.20;99.90;;;;;;2586106;54;20309;31
2023/09/06 04:01:26;;;;;;;10.10;6.40;;;13.10;99.90;;;;;;2586143;54;20940;31
2023/09/06 04:04:00;;;;;;;9.77;6.65;;;13.10;99.90;;;;;;2586243;54;20886;31
2023/09/06 04:06:34;;;;;;;7.90;5.40;;;13.10;99.90;;;;;;2604490;46;20030;31
2023/09/06 04:09:12;;;;;;;12.55;7.60;;;13.00;99.90;;;;;;2586246;54;20050;31
2023/09/06 04:11:46;;;;;;;10.35;6.80;;;13.00;99.90;;;;;;2586071;54;19946;31
2023/09/06 04:14:24;;;;;;;10.13;7.53;;;13.00;99.90;;;;;;2586065;54;19935;31
2023/09/06 04:16:59;;;;;;;11.20;6.35;;;13.00;99.90;;;;;;2586192;54;20076;31
2023/09/06 04:19:37;;;;;;;11.20;6.88;;;12.90;99.90;;;;;;2586194;54;20027;31
2023/09/06 04:22:12;;;;;;;9.70;6.25;;;12.90;99.90;;;;;;2586015;54;20026;31
2023/09/06 04:24:49;;;;;;;11.10;6.88;;;12.90;99.90;;;;;;2586055;54;20050;31
2023/09/06 04:27:29;;;;;;;9.85;6.53;;;12.90;99.90;;;;;;2585411;54;20783;31
2023/09/06 04:30:12;;;;;;;13.20;7.10;;;12.80;99.90;;;;;;2585437;54;20966;31
2023/09/06 04:32:48;;;;;;;11.53;6.90;;;12.90;99.90;;;;;;2586166;54;20026;31
2023/09/06 04:35:22;;;;;;;;;;;12.90;99.90;;;;;;2586188;54;21245;31
2023/09/06 04:37:56;;;;;;;10.00;5.85;;;12.90;99.90;;;;;;2586076;54;19946;31
2023/09/06 04:40:31;;;;;;;11.35;6.13;;;12.90;99.90;;;;;;2586034;54;20085;31
2023/09/06 04:43:10;;;;;;;10.37;6.70;;;12.90;99.90;;;;;;2585877;54;20782;31
2023/09/06 04:45:45;;;;;;;9.32;5.70;;;13.00;99.90;;;;;;2604434;46;20286;31
2023/09/06 04:48:25;;;;;;;10.35;5.70;;;13.00;99.90;;;;;;2586271;54;20026;31
2023/09/06 04:51:06;;;;;;;11.48;6.32;;;13.00;99.90;;;;;;2585774;54;20903;31
2023/09/06 04:53:39;;;;;;;12.40;6.70;;;13.10;99.90;;;;;;2586219;54;20873;31
2023/09/06 04:56:13;;;;;;;11.07;6.80;;;13.10;99.90;;;;;;2585926;54;20026;31
2023/09/06 04:58:50;;;;;;;9.68;6.63;;;13.20;99.90;;;;;;2585914;54;20836;31
2023/09/06 05:01:26;;;;;;;10.50;6.75;;;13.20;99.90;;;;;;2585256;54;20030;31
2023/09/06 05:04:03;;;;;;;11.65;6.45;;;13.30;99.90;;;;;;2584963;54;20121;31
2023/09/06 05:06:42;;;;;;;;;;;13.30;99.90;;;;;;2585328;54;20030;31
2023/09/06 05:09:19;;;;;;;10.73;6.38;;;13.40;99.90;;;;;;2585342;54;22290;31
2023/09/06 05:11:54;;;;;;;9.13;6.07;;;13.40;99.90;;;;;;2585890;54;20861;31
2023/09/06 05:14:29;;;;;;;11.10;6.40;;;13.40;99.90;;;;;;2586070;54;20057;31
2023/09/06 05:17:06;;;;;;;10.95;5.40;;;13.50;99.90;;;;;;2683334;39;22400;31
2023/09/06 05:19:44;;;;;;;13.57;6.13;;;13.60;99.90;;;;;;2585066;54;20825;31
2023/09/06 05:25:14;;;;;;;9.57;6.60;;;14.00;99.90;;;;;;2604123;46;20089;31
2023/09/06 05:27:49;;;;;;;10.17;5.93;;;14.10;99.90;;;;;;2604666;46;20938;31
2023/09/06 05:30:24;;;;;;;11.47;6.70;;;14.20;99.90;;;;;;2585525;54;20027;31
2023/09/06 05:32:57;;;;;;;13.45;6.47;;;14.20;99.90;;;;;;2585725;54;20827;31
2023/09/06 05:35:34;;;;;;;12.33;6.83;;;14.20;99.90;;;;;;2586008;54;20033;31
2023/09/06 05:38:09;;;;;;;9.10;6.35;;;14.20;99.90;;;;;;2702274;39;22323;31
2023/09/06 05:40:44;;;;;;;9.33;6.50;;;14.30;99.90;;;;;;2585806;54;20958;31
2023/09/06 05:43:25;;;;;;;10.73;7.38;;;14.40;99.90;;;;;;2585742;54;20915;31
2023/09/06 05:45:57;;;;;;;9.60;6.70;;;14.50;99.90;;;;;;2585846;54;20056;31
2023/09/06 05:48:28;;;;;;;10.80;6.28;;;14.80;99.90;;;;;;2585374;54;20937;31
2023/09/06 05:51:05;;;;;;;9.90;6.25;;;15.10;99.90;;;;;;2585948;54;20034;31
2023/09/06 05:53:38;;;;;;;10.90;6.20;;;15.50;99.90;;;;;;2585441;54;20907;31
2023/09/06 05:56:13;;;;;;;10.52;5.95;;;15.90;99.90;;;;;;2585696;54;20026;31
2023/09/06 05:58:48;;;;;;;9.80;6.13;;;16.30;99.90;;;;;;2585982;54;20030;31
2023/09/06 06:01:22;;;;;;;10.48;6.70;;;16.70;99.90;;;;;;2585663;54;20254;31
2023/09/06 06:03:55;;;;;;;9.63;6.15;;;17.10;99.90;;;;;;2587089;46;20026;31
2023/09/06 06:06:30;;;;;;;9.57;6.10;;;17.40;99.90;;;;;;2585963;54;20934;31
2023/09/06 06:09:03;;;;;;;10.00;6.07;;;17.70;99.90;;;;;;2585588;54;20030;31
2023/09/06 06:11:40;;;;;;;9.52;6.20;;;18.00;99.90;;;;;;2586222;54;20796;31
2023/09/06 06:14:12;;;;;;;8.57;6.00;;;18.30;99.90;;;;;;2585747;54;20771;31
2023/09/06 06:16:44;;;;;;;8.75;6.10;;;18.60;99.90;;;;;;2585742;54;20053;31
2023/09/06 06:19:20;;;;;;;10.70;6.15;;;18.80;99.90;;;;;;2604403;47;20102;31
2023/09/06 06:21:57;;;;;;;9.00;6.20;;;19.00;99.90;;;;;;2586570;54;20054;31
2023/09/06 06:24:33;;;;;;;10.27;5.53;;;19.20;99.90;;;;;;2604592;46;20061;31
2023/09/06 06:27:05;;;;;;;10.00;5.45;;;19.40;99.90;;;;;;2586648;54;20038;31
2023/09/06 06:29:39;;;;;;;7.30;5.05;;;19.60;99.90;;;;;;2586314;54;20121;31
2023/09/06 06:32:12;;;;;;;7.40;5.70;;;19.80;99.90;;;;;;2586141;54;20049;31
2023/09/06 06:34:54;;;;;;;9.17;5.57;;;20.10;99.90;;;;;;2586552;54;20909;31
2023/09/06 06:37:31;;;;;;;7.80;5.15;;;20.40;99.90;;;;;;2586494;54;20848;31
2023/09/06 06:40:09;;;;;;;8.93;5.07;;;20.70;99.90;;;;;;2586525;54;20030;31
2023/09/06 06:42:46;;;;;;;8.82;5.75;;;21.00;99.90;;;;;;2604638;46;20037;31
2023/09/06 06:45:20;;;;;;;;;;;21.20;99.90;;;;;;2605466;46;20022;31
2023/09/06 06:47:54;;;;;;;8.63;5.50;;;21.40;99.90;;;;;;2605088;46;20012;31
2023/09/06 06:50:28;;;;;;;8.32;5.53;;;21.50;99.90;;;;;;2586528;54;20026;31
2023/09/06 06:53:05;;;;;;;7.38;5.43;;;21.80;99.90;;;;;;2586832;54;20038;31
2023/09/06 06:55:38;;;;;;;8.18;5.13;;;21.90;99.90;;;;;;2586484;54;20901;31
2023/09/06 06:58:14;;;;;;;7.93;5.23;;;22.20;99.90;;;;;;2604773;46;20030;31
2023/09/06 07:00:48;;;;;;;8.18;5.55;;;22.50;99.90;;;;;;2586597;54;20913;31
2023/09/06 07:03:20;;;;;;;7.88;5.00;;;22.80;99.90;;;;;;2604692;46;20918;31
2023/09/06 07:05:53;;;;;;;9.95;5.40;;;23.00;99.90;;;;;;2586258;54;20850;31
2023/09/06 07:08:32;;;;;;;7.22;5.53;;;23.20;99.90;;;;;;2586213;54;20161;31
2023/09/06 07:11:08;;;;;;;9.00;5.22;;;23.30;99.90;;;;;;2604936;46;20029;31
2023/09/06 07:13:49;;;;;;;11.73;5.63;;;23.60;99.90;;;;;;2586400;54;20125;31
2023/09/06 07:16:26;;;;;;;10.07;5.65;;;23.90;99.90;;;;;;2605188;46;21110;31
2023/09/06 07:19:08;;;;;;;14.43;5.93;;;24.00;99.90;;;;;;2586281;54;20086;31
2023/09/06 07:21:42;;;;;;;8.65;5.00;;;24.30;99.90;;;;;;2586438;54;20911;31
2023/09/06 07:24:19;;;;;;;6.93;5.18;;;24.40;99.90;;;;;;2585326;54;21000;31
2023/09/06 07:26:54;;;;;;;9.03;4.70;;;24.50;99.90;;;;;;2586403;54;20106;31
2023/09/06 07:29:26;;;;;;;8.20;4.80;;;24.70;99.90;;;;;;2586103;54;21093;31
2023/09/06 07:32:00;;;;;;;9.60;4.88;;;24.90;99.90;;;;;;2586517;54;20752;31
2023/09/06 07:34:35;;;;;;;10.30;5.40;;;25.20;99.90;;;;;;2586327;54;20029;31
2023/09/06 07:37:10;;;;;;;11.25;4.65;;;25.40;99.90;;;;;;2586484;54;21047;31
2023/09/06 07:39:44;;;;;;;6.80;4.50;;;25.70;99.90;;;;;;2702546;39;21324;31
2023/09/06 07:42:19;;;;;;;9.80;5.23;;;25.80;99.90;;;;;;2604564;46;20712;31
2023/09/06 07:44:56;;;;;;;6.80;4.30;;;26.10;99.90;;;;;;2585913;54;21016;31
2023/09/06 07:47:28;;;;;;;10.63;4.50;;;26.20;99.90;;;;;;2586345;54;20037;31
2023/09/06 07:50:01;;;;;;;8.75;4.70;;;26.50;99.90;;;;;;2586395;54;20977;31
2023/09/06 07:52:36;;;;;;;5.80;4.35;;;26.60;99.90;;;;;;2586217;54;20031;31
2023/09/06 07:55:12;;;;;;;7.28;4.07;;;26.60;99.90;;;;;;2586216;54;20979;31
2023/09/06 07:57:47;;;;;;;5.68;4.35;;;26.70;99.90;;;;;;2586067;54;20224;31
2023/09/06 08:00:19;;;;;;;5.80;4.30;;;26.90;99.90;;;;;;2586275;54;20767;31
2023/09/06 08:02:54;;;;;;;7.10;4.30;;;27.10;99.90;;;;;;2604643;46;20924;31
2023/09/06 08:05:26;;;;;;;8.57;4.25;;;27.30;99.90;;;;;;2586133;54;20053;31
2023/09/06 08:08:00;;;;;;;6.25;4.00;;;27.30;99.90;;;;;;2604951;46;20033;31
2023/09/06 08:10:36;;;;;;;6.45;4.40;;;27.60;99.90;;;;;;2586134;54;20153;31
2023/09/06 08:13:11;;;;;;;6.57;3.78;;;27.70;99.90;;;;;;2586402;54;20057;31
2023/09/06 08:15:45;;;;;;;6.90;3.65;;;27.90;99.90;;;;;;2586434;54;20893;31
2023/09/06 08:18:20;;;;;;;7.60;3.85;;;28.10;99.90;;;;;;2586736;54;20809;31
2023/09/06 08:20:55;;;;;;;6.70;3.30;;;28.20;99.90;;;;;;2604999;46;20033;31
2023/09/06 08:23:30;;;;;;;5.10;3.60;;;28.30;99.90;;;;;;2605049;46;20062;31
2023/09/06 08:26:09;;;;;;;8.40;3.30;;;28.50;99.90;;;;;;2586271;54;20023;31
2023/09/06 08:28:42;;;;;;;4.40;2.90;;;28.50;99.90;;;;;;2604749;46;20760;31
2023/09/06 08:31:15;;;;;;;5.35;3.50;;;28.70;99.90;;;;;;2586215;54;20033;31
2023/09/06 08:33:51;;;;;;;3.90;2.65;;;28.90;99.90;;;;;;2586109;54;20037;31
2023/09/06 08:36:23;;;;;;;3.97;2.78;;;28.90;99.90;;;;;;2586077;54;20752;31
2023/09/06 08:38:57;;;;;;;6.25;3.35;;;29.10;99.90;;;;;;2586490;54;20827;31
2023/09/06 08:41:34;;;;;;;4.53;3.10;;;29.20;99.90;;;;;;2586139;54;20136;31
2023/09/06 08:44:11;;;;;;;4.53;2.63;;;29.10;99.90;;;;;;2586152;54;20030;31
2023/09/06 08:46:45;;;;;;;6.00;3.40;;;29.20;99.90;;;;;;2586241;54;20034;31
2023/09/06 08:49:20;;;;;;;4.40;3.10;;;29.20;99.90;;;;;;2586156;54;20801;31
2023/09/06 08:51:55;;;;;;;5.57;3.08;;;29.40;99.90;;;;;;2586294;54;21040;31
2023/09/06 08:54:31;;;;;;;5.25;3.03;;;29.50;99.90;;;;;;2586109;54;20085;31
2023/09/06 08:57:09;;;;;;;5.90;3.10;;;29.70;99.20;;;;;;2604938;46;20909;31
2023/09/06 08:59:41;;;;;;;5.03;2.65;;;29.60;97.10;;;;;;2586001;54;20732;31
2023/09/06 09:02:16;;;;;;;3.57;2.40;;;29.70;96.90;;;;;;2586240;54;20886;31
2023/09/06 09:04:52;;;;;;;3.67;2.47;;;29.80;96.50;;;;;;2773450;31;20777;31
2023/09/06 09:07:44;;;;;;;3.85;2.25;;;29.90;96.30;;;;;;2585993;54;20033;31
2023/09/06 09:10:20;;;;;;;3.70;2.30;;;29.90;94.00;;;;;;2604807;46;20109;31
2023/09/06 09:12:58;;;;;;;;;;;29.90;93.50;;;;;;2586408;54;20026;31
2023/09/06 09:15:32;;;;;;;3.72;1.73;;;29.90;92.70;;;;;;2586044;54;20016;31
2023/09/06 09:18:13;;;;;;;3.08;1.90;;;30.10;94.10;;;;;;2585975;54;20910;31
2023/09/06 09:20:47;;;;;;;3.25;1.90;;;30.10;92.80;;;;;;2586181;54;20022;31
2023/09/06 09:23:19;;;;;;;3.63;2.20;;;30.10;91.80;;;;;;2585895;54;20089;31
2023/09/06 09:25:51;;;;;;;4.20;2.20;;;30.00;92.60;;;;;;2585768;54;20032;31
2023/09/06 09:28:27;;;;;;;4.65;2.20;;;30.00;92.50;;;;;;2586169;54;20023;31
2023/09/06 09:31:00;;;;;;;3.40;1.80;;;30.00;91.10;;;;;;2586223;54;20910;31
2023/09/06 09:33:33;;;;;;;4.40;2.10;;;29.90;90.50;;;;;;2585523;54;20027;31
2023/09/06 09:36:06;;;;;;;3.17;2.08;;;29.90;91.00;;;;;;2586100;54;21000;31
2023/09/06 09:38:43;;;;;;;2.92;1.90;;;29.90;90.40;;;;;;2586058;54;20114;31
2023/09/06 09:41:16;;;;;;;3.67;2.03;;;30.00;90.70;;;;;;2585704;54;20037;31
2023/09/06 09:43:53;;;;;;;7.90;2.40;;;30.00;90.20;;;;;;2585338;54;20227;31
2023/09/06 09:46:30;;;;;;;2.75;1.85;;;30.10;90.40;;;;;;2585928;54;20741;31
2023/09/06 09:49:08;;;;;;;3.10;2.00;;;30.10;90.00;;;;;;2586026;54;20753;31
2023/09/06 09:51:45;;;;;;;2.88;1.80;;;30.10;90.80;;;;;;2585839;54;20033;31
2023/09/06 09:54:19;;;;;;;3.60;1.88;;;30.10;88.40;;;;;;2604254;46;20053;31
2023/09/06 09:57:00;;;;;;;2.67;1.98;;;30.20;90.50;;;;;;2586014;54;20034;31
2023/09/06 09:59:40;;;;;;;2.55;1.75;;;30.20;88.40;;;;;;2585870;54;20028;31
2023/09/06 10:02:15;;;;;;;3.15;1.90;;;30.30;90.00;;;;;;2585864;54;20033;31
2023/09/06 10:05:08;;;;;;;2.60;1.85;;;30.30;89.60;;;;;;2585940;54;20752;31
2023/09/06 10:07:45;;;;;;;3.70;1.63;;;30.20;88.70;;;;;;2604125;46;20885;31
2023/09/06 10:10:25;;;;;;;2.73;1.80;;;30.20;89.80;;;;;;2585978;54;20026;31
2023/09/06 10:13:01;;;;;;;6.15;2.40;;;30.30;90.30;;;;;;2586022;54;20045;31
2023/09/06 10:15:39;;;;;;;3.10;1.60;;;30.10;88.00;;;;;;2585957;54;21067;31
2023/09/06 10:18:15;;;;;;;2.85;1.95;;;30.20;88.80;;;;;;2585660;54;20748;31
2023/09/06 10:20:54;;;;;;;4.22;2.13;;;30.20;88.70;;;;;;2585795;54;20031;31
2023/09/06 10:23:32;;;;;;;3.77;2.00;;;30.10;87.70;;;;;;2585935;54;20932;31
2023/09/06 10:26:05;;;;;;;2.93;2.13;;;30.00;87.50;;;;;;2585129;54;20883;31
2023/09/06 10:28:39;;;;;;;3.40;1.60;;;29.90;89.40;;;;;;2585460;54;20906;31
2023/09/06 10:31:13;;;;;;;3.60;2.00;;;30.00;90.20;;;;;;2586005;54;20019;31
2023/09/06 10:34:07;;;;;;;4.00;2.08;;;30.10;89.50;;;;;;2586079;54;20064;31
2023/09/06 10:36:51;;;;;;;3.67;2.23;;;30.10;87.10;;;;;;2585860;54;20956;31
2023/09/06 10:39:28;;;;;;;2.78;1.80;;;30.10;88.40;;;;;;2586009;54;20257;31
2023/09/06 10:42:30;;;;;;;3.05;2.08;;;30.00;88.70;;;;;;2585914;54;19935;31
2023/09/06 10:45:17;;;;;;;3.13;1.80;;;30.00;88.90;;;;;;2585893;54;20864;31
2023/09/06 10:47:50;;;;;;;3.00;1.75;;;30.10;89.40;;;;;;2604062;47;20041;31
2023/09/06 10:50:32;;;;;;;2.83;1.98;;;29.90;88.20;;;;;;2585817;54;20058;31
2023/09/06 10:53:05;;;;;;;3.47;2.15;;;29.90;90.20;;;;;;2585698;54;20112;31
2023/09/06 10:56:10;;;;;;;2.80;1.90;;;29.80;90.10;;;;;;2585683;54;20027;31
2023/09/06 10:58:43;;;;;;;1.98;1.65;;;29.80;89.80;;;;;;2595529;47;21067;31
2023/09/06 11:01:21;;;;;;;2.53;1.52;;;29.70;88.80;;;;;;2604188;47;20956;31
2023/09/06 11:03:55;;;;;;;3.83;1.88;;;29.70;89.00;;;;;;2585612;54;20032;31
2023/09/06 11:06:35;;;;;;;3.60;2.10;;;29.70;91.90;;;;;;2604988;47;20026;31
2023/09/06 11:09:10;;;;;;;3.27;1.70;;;29.70;88.90;;;;;;2586649;54;20053;31
2023/09/06 11:11:43;;;;;;;2.58;1.80;;;29.70;89.40;;;;;;2586764;54;20029;31
2023/09/06 11:14:16;;;;;;;4.60;2.40;;;29.60;89.00;;;;;;2586565;54;20874;31
2023/09/06 11:16:54;;;;;;;3.47;1.92;;;29.60;88.50;;;;;;2586647;54;20026;31
2023/09/06 11:19:36;;;;;;;3.10;1.70;;;29.50;88.90;;;;;;2586260;54;20117;31
2023/09/06 11:22:13;;;;;;;2.75;2.05;;;29.50;88.20;;;;;;2586675;54;20257;31
2023/09/06 11:24:48;;;;;;;3.30;1.90;;;29.40;88.20;;;;;;2586676;54;20085;31
2023/09/06 11:27:20;;;;;;;;;;;29.30;88.00;;;;;;2586619;54;20940;31
2023/09/06 11:30:09;;;;;;;2.80;1.65;;;29.20;86.50;;;;;;2605404;46;20819;31
2023/09/06 11:32:44;;;;;;;3.97;2.20;;;29.20;86.60;;;;;;2586493;54;20093;31
2023/09/06 11:35:22;;;;;;;2.93;1.80;;;29.10;86.40;;;;;;2586504;54;20153;31
2023/09/06 11:37:58;;;;;;;3.83;1.80;;;29.10;86.60;;;;;;2605242;46;20728;31
2023/09/06 11:40:34;;;;;;;3.10;1.97;;;29.00;86.80;;;;;;2586743;54;20855;31
2023/09/06 11:43:10;;;;;;;2.80;1.63;;;29.00;88.20;;;;;;2586444;54;20033;31
2023/09/06 11:45:48;;;;;;;3.13;1.90;;;29.00;87.30;;;;;;2586311;54;20153;31
2023/09/06 11:48:27;;;;;;;3.13;1.83;;;28.90;85.90;;;;;;2747067;31;20026;31
2023/09/06 11:51:08;;;;;;;2.72;1.60;;;28.90;86.10;;;;;;2585396;54;20062;31
2023/09/06 11:53:54;;;;;;;4.30;1.70;;;28.80;85.30;;;;;;2586351;54;20169;31
2023/09/06 11:56:36;;;;;;;4.47;1.70;;;28.90;87.20;;;;;;2604715;46;19961;31
2023/09/06 11:59:12;;;;;;;2.20;1.30;;;28.90;87.30;;;;;;2586603;54;20861;31
2023/09/06 12:01:52;;;;;;;1.95;1.50;;;28.90;86.70;;;;;;2586444;54;20081;31
2023/09/06 12:04:32;;;;;;;3.10;1.85;;;28.90;86.20;;;;;;2604797;46;20863;31
2023/09/06 12:07:07;;;;;;;3.10;1.75;;;28.90;88.60;;;;;;2586031;54;20872;31
2023/09/06 12:09:45;;;;;;;4.78;1.83;;;28.90;87.90;;;;;;2604783;46;20898;31
2023/09/06 12:12:24;;;;;;;2.53;1.73;;;28.80;87.30;;;;;;2586178;54;20859;31
2023/09/06 12:14:57;;;;;;;2.97;1.80;;;28.70;88.20;;;;;;2586379;54;20036;31
2023/09/06 12:17:33;;;;;;;2.75;1.65;;;28.70;88.40;;;;;;2585823;54;20124;31
2023/09/06 12:20:10;;;;;;;3.05;1.80;;;28.70;87.50;;;;;;2585642;54;20869;31
2023/09/06 12:22:46;;;;;;;2.50;1.70;;;28.70;88.70;;;;;;2586587;54;20054;31
2023/09/06 12:25:23;;;;;;;4.10;2.10;;;28.70;88.80;;;;;;2586294;54;20608;31
2023/09/06 12:27:56;;;;;;;3.08;2.17;;;28.70;89.10;;;;;;2586317;54;19942;31
2023/09/06 12:30:30;;;;;;;4.00;1.80;;;28.60;88.90;;;;;;2604742;46;20026;31
2023/09/06 12:33:03;;;;;;;2.67;1.90;;;28.50;87.20;;;;;;2586342;54;20034;31
2023/09/06 12:35:40;;;;;;;3.23;2.03;;;28.40;88.50;;;;;;2586420;54;20034;31
2023/09/06 12:38:17;;;;;;;2.88;1.92;;;28.40;88.70;;;;;;2585884;54;20785;31
2023/09/06 12:40:54;;;;;;;2.75;1.90;;;28.30;90.80;;;;;;2586378;54;20022;31
2023/09/06 12:43:31;;;;;;;4.75;1.90;;;28.20;89.30;;;;;;2586323;54;20037;31
2023/09/06 12:46:12;;;;;;;2.55;1.75;;;28.20;88.80;;;;;;2585311;54;20627;31
2023/09/06 12:48:50;;;;;;;3.87;2.20;;;28.20;88.80;;;;;;2586243;54;20083;31
2023/09/06 12:51:22;;;;;;;4.75;1.90;;;28.20;88.20;;;;;;2586121;54;20249;31
2023/09/06 12:53:55;;;;;;;2.80;2.10;;;28.00;88.70;;;;;;2586164;54;20109;31
2023/09/06 12:56:34;;;;;;;2.30;1.67;;;28.10;89.90;;;;;;2604832;46;20026;31
2023/09/06 12:59:11;;;;;;;3.30;2.15;;;28.10;86.40;;;;;;2585474;54;20884;31
2023/09/06 13:01:43;;;;;;;4.25;1.88;;;28.10;88.60;;;;;;2604851;46;20886;31
2023/09/06 13:04:19;;;;;;;2.75;1.60;;;28.10;88.10;;;;;;2702155;39;20406;31
2023/09/06 13:06:58;;;;;;;2.80;2.20;;;28.10;87.20;;;;;;2604717;46;19935;31
2023/09/06 13:09:30;;;;;;;3.55;1.90;;;28.10;87.80;;;;;;2586287;54;20839;31
2023/09/06 13:12:10;;;;;;;2.92;1.80;;;28.10;88.60;;;;;;2702149;39;20492;31
2023/09/06 13:14:46;;;;;;;3.33;1.90;;;28.10;87.40;;;;;;2586050;54;20870;31
2023/09/06 13:17:24;;;;;;;4.82;2.22;;;28.10;88.80;;;;;;2586100;54;19957;31
2023/09/06 13:19:57;;;;;;;3.20;2.20;;;28.10;88.00;;;;;;2604393;46;20905;31
2023/09/06 13:22:30;;;;;;;2.97;1.83;;;28.10;90.40;;;;;;2585914;54;21098;31
2023/09/06 13:25:06;;;;;;;4.57;2.20;;;28.10;89.90;;;;;;2586123;54;20121;31
2023/09/06 13:27:46;;;;;;;2.92;1.70;;;28.00;88.50;;;;;;2586126;54;20227;31
2023/09/06 13:30:19;;;;;;;3.30;1.80;;;28.00;89.90;;;;;;2586093;54;20870;31
2023/09/06 13:32:52;;;;;;;4.25;2.00;;;28.00;87.70;;;;;;2604428;46;20034;31
2023/09/06 13:35:30;;;;;;;3.80;2.20;;;27.90;90.00;;;;;;2585952;54;20927;31
2023/09/06 13:38:07;;;;;;;2.45;1.85;;;27.90;88.10;;;;;;2592720;46;20093;31
2023/09/06 13:40:43;;;;;;;2.50;1.55;;;27.90;88.70;;;;;;2586237;54;20732;31
2023/09/06 13:43:22;;;;;;;2.95;1.90;;;27.80;91.20;;;;;;2585965;54;20026;31